sensor_id;sensor_type;location;lat;lon;timestamp;temperature;humidity
26336;DHT22;14047;50.936;4.654;2023-04-03T00:00:46;3.00;99.90
26336;DHT22;14047;50.936;4.654;2023-04-03T00:03:12;3.00;99.90
26336;DHT22;14047;50.936;4.654;2023-04-03T00:05:38;3.10;99.90
26336;DHT22;14047;50.936;4.654;2023-04-03T00:08:03;3.20;99.90
26336;DHT22;14047;50.936;4.654;2023-04-03T00:10:33;3.20;99.90
26336;DHT22;14047;50.936;4.654;2023-04-03T00:12:59;3.30;99.90
26336;DHT22;14047;50.936;4.654;2023-04-03T00:15:25;3.40;99.90
26336;DHT22;14047;50.936;4.654;2023-04-03T00:17:51;3.40;99.90
26336;DHT22;14047;50.936;4.654;2023-04-03T00:20:17;3.30;99.90
26336;DHT22;14047;50.936;4.654;2023-04-03T00:22:43;3.30;99.90
26336;DHT22;14047;50.936;4.654;2023-04-03T00:25:09;3.20;99.90
26336;DHT22;14047;50.936;4.654;2023-04-03T00:27:37;3.20;99.90
26336;DHT22;14047;50.936;4.654;2023-04-03T00:30:04;3.20;99.90
26336;DHT22;14047;50.936;4.654;2023-04-03T00:32:30;3.20;99.90
26336;DHT22;14047;50.936;4.654;2023-04-03T00:34:56;3.20;99.90
26336;DHT22;14047;50.936;4.654;2023-04-03T00:37:22;3.20;99.90
26336;DHT22;14047;50.936;4.654;2023-04-03T00:39:47;3.10;99.90
26336;DHT22;14047;50.936;4.654;2023-04-03T00:42:13;3.20;99.90
26336;DHT22;14047;50.936;4.654;2023-04-03T00:47:09;3.00;99.90
26336;DHT22;14047;50.936;4.654;2023-04-03T00:49:37;3.00;99.90
26336;DHT22;14047;50.936;4.654;2023-04-03T00:52:06;2.90;99.90
26336;DHT22;14047;50.936;4.654;2023-04-03T00:54:35;2.80;99.90
26336;DHT22;14047;50.936;4.654;2023-04-03T00:57:02;2.60;99.90
26336;DHT22;14047;50.936;4.654;2023-04-03T00:59:38;2.60;99.90
26336;DHT22;14047;50.936;4.654;2023-04-03T01:02:06;2.60;99.90
26336;DHT22;14047;50.936;4.654;2023-04-03T01:04:37;2.70;99.90
26336;DHT22;14047;50.936;4.654;2023-04-03T01:07:08;2.70;99.90
26336;DHT22;14047;50.936;4.654;2023-04-03T01:09:34;2.80;99.90
26336;DHT22;14047;50.936;4.654;2023-04-03T01:14:48;2.80;99.90
26336;DHT22;14047;50.936;4.654;2023-04-03T01:25:35;2.60;99.90
26336;DHT22;14047;50.936;4.654;2023-04-03T01:28:03;2.70;99.90
26336;DHT22;14047;50.936;4.654;2023-04-03T01:30:35;2.70;99.90
26336;DHT22;14047;50.936;4.654;2023-04-03T01:33:03;2.70;99.90
26336;DHT22;14047;50.936;4.654;2023-04-03T01:35:29;2.70;99.90
26336;DHT22;14047;50.936;4.654;2023-04-03T01:37:55;2.80;99.90
26336;DHT22;14047;50.936;4.654;2023-04-03T01:40:21;2.80;99.90
26336;DHT22;14047;50.936;4.654;2023-04-03T01:42:47;2.90;99.90
26336;DHT22;14047;50.936;4.654;2023-04-03T01:45:13;2.90;99.90
26336;DHT22;14047;50.936;4.654;2023-04-03T01:47:39;2.90;99.90
26336;DHT22;14047;50.936;4.654;2023-04-03T01:50:05;2.90;99.90
26336;DHT22;14047;50.936;4.654;2023-04-03T01:52:33;2.80;99.90
26336;DHT22;14047;50.936;4.654;2023-04-03T01:54:59;2.70;99.90
26336;DHT22;14047;50.936;4.654;2023-04-03T01:57:26;2.70;99.90
26336;DHT22;14047;50.936;4.654;2023-04-03T01:59:52;2.70;99.90
26336;DHT22;14047;50.936;4.654;2023-04-03T02:02:18;2.60;99.90
26336;DHT22;14047;50.936;4.654;2023-04-03T02:04:46;2.60;99.90
26336;DHT22;14047;50.936;4.654;2023-04-03T02:07:12;2.50;99.90
26336;DHT22;14047;50.936;4.654;2023-04-03T02:09:38;2.50;99.90
26336;DHT22;14047;50.936;4.654;2023-04-03T02:12:03;2.40;99.90
26336;DHT22;14047;50.936;4.654;2023-04-03T02:14:30;2.30;99.90
26336;DHT22;14047;50.936;4.654;2023-04-03T02:16:56;2.30;99.90
26336;DHT22;14047;50.936;4.654;2023-04-03T02:19:22;2.30;99.90
26336;DHT22;14047;50.936;4.654;2023-04-03T02:21:48;2.30;99.90
26336;DHT22;14047;50.936;4.654;2023-04-03T02:24:14;2.30;99.90
26336;DHT22;14047;50.936;4.654;2023-04-03T02:26:40;2.20;99.90
26336;DHT22;14047;50.936;4.654;2023-04-03T02:29:06;2.30;99.90
26336;DHT22;14047;50.936;4.654;2023-04-03T02:31:32;2.10;99.90
26336;DHT22;14047;50.936;4.654;2023-04-03T02:34:00;2.10;99.90
26336;DHT22;14047;50.936;4.654;2023-04-03T02:36:26;2.00;99.90
26336;DHT22;14047;50.936;4.654;2023-04-03T02:38:56;2.00;99.90
26336;DHT22;14047;50.936;4.654;2023-04-03T02:41:22;2.20;99.90
26336;DHT22;14047;50.936;4.654;2023-04-03T02:43:50;2.10;99.90
26336;DHT22;14047;50.936;4.654;2023-04-03T02:46:16;2.10;99.90
26336;DHT22;14047;50.936;4.654;2023-04-03T02:48:42;2.00;99.90
26336;DHT22;14047;50.936;4.654;2023-04-03T02:51:09;2.00;99.90
26336;DHT22;14047;50.936;4.654;2023-04-03T02:53:35;2.00;99.90
26336;DHT22;14047;50.936;4.654;2023-04-03T02:56:08;1.90;99.90
26336;DHT22;14047;50.936;4.654;2023-04-03T02:58:33;1.80;99.90
26336;DHT22;14047;50.936;4.654;2023-04-03T03:01:01;1.70;99.90
26336;DHT22;14047;50.936;4.654;2023-04-03T03:03:27;1.60;99.90
26336;DHT22;14047;50.936;4.654;2023-04-03T03:06:08;1.50;99.90
26336;DHT22;14047;50.936;4.654;2023-04-03T03:08:34;1.40;99.90
26336;DHT22;14047;50.936;4.654;2023-04-03T03:11:01;1.50;99.90
26336;DHT22;14047;50.936;4.654;2023-04-03T03:13:27;1.70;99.90
26336;DHT22;14047;50.936;4.654;2023-04-03T03:15:54;1.90;99.90
26336;DHT22;14047;50.936;4.654;2023-04-03T03:18:19;1.80;99.90
26336;DHT22;14047;50.936;4.654;2023-04-03T03:20:46;1.80;99.90
26336;DHT22;14047;50.936;4.654;2023-04-03T03:23:12;2.00;99.90
26336;DHT22;14047;50.936;4.654;2023-04-03T03:25:39;2.00;99.90
26336;DHT22;14047;50.936;4.654;2023-04-03T03:28:07;2.10;99.90
26336;DHT22;14047;50.936;4.654;2023-04-03T03:30:33;2.00;99.90
26336;DHT22;14047;50.936;4.654;2023-04-03T03:32:59;2.10;99.90
26336;DHT22;14047;50.936;4.654;2023-04-03T03:35:25;2.00;99.90
26336;DHT22;14047;50.936;4.654;2023-04-03T03:37:51;1.90;99.90
26336;DHT22;14047;50.936;4.654;2023-04-03T03:40:17;1.90;99.90
26336;DHT22;14047;50.936;4.654;2023-04-03T03:42:43;1.90;99.90
26336;DHT22;14047;50.936;4.654;2023-04-03T03:45:09;2.00;99.90
26336;DHT22;14047;50.936;4.654;2023-04-03T03:47:36;1.90;99.90
26336;DHT22;14047;50.936;4.654;2023-04-03T03:50:02;1.90;99.90
26336;DHT22;14047;50.936;4.654;2023-04-03T03:52:28;2.00;99.90
26336;DHT22;14047;50.936;4.654;2023-04-03T03:54:56;1.90;99.90
26336;DHT22;14047;50.936;4.654;2023-04-03T03:57:22;2.00;99.90
26336;DHT22;14047;50.936;4.654;2023-04-03T03:59:48;2.00;99.90
26336;DHT22;14047;50.936;4.654;2023-04-03T04:02:17;1.90;99.90
26336;DHT22;14047;50.936;4.654;2023-04-03T04:04:43;1.80;99.90
26336;DHT22;14047;50.936;4.654;2023-04-03T04:07:10;1.70;99.90
26336;DHT22;14047;50.936;4.654;2023-04-03T04:09:36;1.70;99.90
26336;DHT22;14047;50.936;4.654;2023-04-03T04:12:02;1.60;99.90
26336;DHT22;14047;50.936;4.654;2023-04-03T04:14:31;1.60;99.90
26336;DHT22;14047;50.936;4.654;2023-04-03T04:16:57;1.60;99.90
26336;DHT22;14047;50.936;4.654;2023-04-03T04:19:25;1.50;99.90
26336;DHT22;14047;50.936;4.654;2023-04-03T04:21:51;1.50;99.90
26336;DHT22;14047;50.936;4.654;2023-04-03T04:24:18;1.40;99.90
26336;DHT22;14047;50.936;4.654;2023-04-03T04:26:44;1.40;99.90
26336;DHT22;14047;50.936;4.654;2023-04-03T04:29:12;1.40;99.90
26336;DHT22;14047;50.936;4.654;2023-04-03T04:31:38;1.40;99.90
26336;DHT22;14047;50.936;4.654;2023-04-03T04:34:04;1.40;99.90
26336;DHT22;14047;50.936;4.654;2023-04-03T04:36:31;1.30;99.90
26336;DHT22;14047;50.936;4.654;2023-04-03T04:38:57;1.30;99.90
26336;DHT22;14047;50.936;4.654;2023-04-03T04:41:26;1.30;99.90
26336;DHT22;14047;50.936;4.654;2023-04-03T04:43:52;1.30;99.90
26336;DHT22;14047;50.936;4.654;2023-04-03T04:46:19;1.20;99.90
26336;DHT22;14047;50.936;4.654;2023-04-03T04:48:49;1.30;99.90
26336;DHT22;14047;50.936;4.654;2023-04-03T04:51:18;1.20;99.90
26336;DHT22;14047;50.936;4.654;2023-04-03T04:53:44;1.20;99.90
26336;DHT22;14047;50.936;4.654;2023-04-03T04:56:13;1.30;99.90
26336;DHT22;14047;50.936;4.654;2023-04-03T04:58:39;1.30;99.90
26336;DHT22;14047;50.936;4.654;2023-04-03T05:01:08;1.30;99.90
26336;DHT22;14047;50.936;4.654;2023-04-03T05:03:38;1.30;99.90
26336;DHT22;14047;50.936;4.654;2023-04-03T05:06:04;1.10;99.90
26336;DHT22;14047;50.936;4.654;2023-04-03T05:08:32;1.10;99.90
26336;DHT22;14047;50.936;4.654;2023-04-03T05:10:59;1.10;99.90
26336;DHT22;14047;50.936;4.654;2023-04-03T05:13:27;1.10;99.90
26336;DHT22;14047;50.936;4.654;2023-04-03T05:15:54;1.10;99.90
26336;DHT22;14047;50.936;4.654;2023-04-03T05:18:21;1.00;99.90
26336;DHT22;14047;50.936;4.654;2023-04-03T05:20:51;1.00;99.90
26336;DHT22;14047;50.936;4.654;2023-04-03T05:23:18;1.10;99.90
26336;DHT22;14047;50.936;4.654;2023-04-03T05:25:45;1.00;99.90
26336;DHT22;14047;50.936;4.654;2023-04-03T05:28:13;1.10;99.90
26336;DHT22;14047;50.936;4.654;2023-04-03T05:30:39;1.10;99.90
26336;DHT22;14047;50.936;4.654;2023-04-03T05:33:05;1.10;99.90
26336;DHT22;14047;50.936;4.654;2023-04-03T05:35:46;1.10;99.90
26336;DHT22;14047;50.936;4.654;2023-04-03T05:38:17;1.20;99.90
26336;DHT22;14047;50.936;4.654;2023-04-03T05:40:43;1.20;99.90
26336;DHT22;14047;50.936;4.654;2023-04-03T05:43:10;1.20;99.90
26336;DHT22;14047;50.936;4.654;2023-04-03T05:45:39;1.20;99.90
26336;DHT22;14047;50.936;4.654;2023-04-03T05:48:05;1.30;99.90
26336;DHT22;14047;50.936;4.654;2023-04-03T05:50:31;1.30;99.90
26336;DHT22;14047;50.936;4.654;2023-04-03T05:52:58;1.30;99.90
26336;DHT22;14047;50.936;4.654;2023-04-03T05:55:27;1.40;99.90
26336;DHT22;14047;50.936;4.654;2023-04-03T05:57:53;1.40;99.90
26336;DHT22;14047;50.936;4.654;2023-04-03T06:00:20;1.40;99.90
26336;DHT22;14047;50.936;4.654;2023-04-03T06:02:55;1.50;99.90
26336;DHT22;14047;50.936;4.654;2023-04-03T06:05:23;1.50;99.90
26336;DHT22;14047;50.936;4.654;2023-04-03T06:07:50;1.60;99.90
26336;DHT22;14047;50.936;4.654;2023-04-03T06:10:16;1.70;99.90
26336;DHT22;14047;50.936;4.654;2023-04-03T06:12:44;1.70;99.90
26336;DHT22;14047;50.936;4.654;2023-04-03T06:15:10;1.80;99.90
26336;DHT22;14047;50.936;4.654;2023-04-03T06:17:39;1.70;99.90
26336;DHT22;14047;50.936;4.654;2023-04-03T06:20:06;1.80;99.90
26336;DHT22;14047;50.936;4.654;2023-04-03T06:22:33;1.70;99.90
26336;DHT22;14047;50.936;4.654;2023-04-03T06:25:00;1.70;99.90
26336;DHT22;14047;50.936;4.654;2023-04-03T06:27:26;1.90;99.90
26336;DHT22;14047;50.936;4.654;2023-04-03T06:29:52;1.90;99.90
26336;DHT22;14047;50.936;4.654;2023-04-03T06:32:18;1.90;99.90
26336;DHT22;14047;50.936;4.654;2023-04-03T06:34:44;1.80;99.90
26336;DHT22;14047;50.936;4.654;2023-04-03T06:37:22;1.80;99.90
26336;DHT22;14047;50.936;4.654;2023-04-03T06:39:48;1.90;99.90
26336;DHT22;14047;50.936;4.654;2023-04-03T06:42:14;1.90;99.90
26336;DHT22;14047;50.936;4.654;2023-04-03T06:44:51;1.90;99.90
26336;DHT22;14047;50.936;4.654;2023-04-03T06:47:17;1.80;99.90
26336;DHT22;14047;50.936;4.654;2023-04-03T06:49:44;1.90;99.90
26336;DHT22;14047;50.936;4.654;2023-04-03T06:52:10;1.90;99.90
26336;DHT22;14047;50.936;4.654;2023-04-03T06:54:38;2.00;99.90
26336;DHT22;14047;50.936;4.654;2023-04-03T06:57:03;2.00;99.90
26336;DHT22;14047;50.936;4.654;2023-04-03T06:59:29;2.20;99.90
26336;DHT22;14047;50.936;4.654;2023-04-03T07:01:56;2.40;99.90
26336;DHT22;14047;50.936;4.654;2023-04-03T07:04:22;2.60;99.90
26336;DHT22;14047;50.936;4.654;2023-04-03T07:06:48;2.90;99.90
26336;DHT22;14047;50.936;4.654;2023-04-03T07:09:14;2.80;99.90
26336;DHT22;14047;50.936;4.654;2023-04-03T07:11:40;2.90;99.90
26336;DHT22;14047;50.936;4.654;2023-04-03T07:14:06;2.90;99.90
26336;DHT22;14047;50.936;4.654;2023-04-03T07:16:34;2.90;99.90
26336;DHT22;14047;50.936;4.654;2023-04-03T07:19:01;3.00;99.90
26336;DHT22;14047;50.936;4.654;2023-04-03T07:21:27;3.00;99.90
26336;DHT22;14047;50.936;4.654;2023-04-03T07:23:53;3.00;99.90
26336;DHT22;14047;50.936;4.654;2023-04-03T07:26:20;3.10;99.90
26336;DHT22;14047;50.936;4.654;2023-04-03T07:28:49;3.30;99.90
26336;DHT22;14047;50.936;4.654;2023-04-03T07:31:16;3.60;99.90
26336;DHT22;14047;50.936;4.654;2023-04-03T07:33:43;3.70;99.90
26336;DHT22;14047;50.936;4.654;2023-04-03T07:36:14;3.90;99.90
26336;DHT22;14047;50.936;4.654;2023-04-03T07:38:41;4.00;99.90
26336;DHT22;14047;50.936;4.654;2023-04-03T07:41:14;4.10;99.90
26336;DHT22;14047;50.936;4.654;2023-04-03T07:43:41;3.90;99.90
26336;DHT22;14047;50.936;4.654;2023-04-03T07:46:07;3.90;99.90
26336;DHT22;14047;50.936;4.654;2023-04-03T07:48:34;4.00;99.90
26336;DHT22;14047;50.936;4.654;2023-04-03T07:51:01;4.00;99.90
26336;DHT22;14047;50.936;4.654;2023-04-03T07:53:28;4.10;99.90
26336;DHT22;14047;50.936;4.654;2023-04-03T07:55:54;4.50;99.90
26336;DHT22;14047;50.936;4.654;2023-04-03T07:58:22;4.60;99.90
26336;DHT22;14047;50.936;4.654;2023-04-03T08:00:48;4.70;99.90
26336;DHT22;14047;50.936;4.654;2023-04-03T08:03:14;4.60;99.90
26336;DHT22;14047;50.936;4.654;2023-04-03T08:05:46;4.50;99.90
26336;DHT22;14047;50.936;4.654;2023-04-03T08:08:17;4.50;99.90
26336;DHT22;14047;50.936;4.654;2023-04-03T08:10:51;4.80;99.90
26336;DHT22;14047;50.936;4.654;2023-04-03T08:13:17;5.00;99.90
26336;DHT22;14047;50.936;4.654;2023-04-03T08:15:43;5.30;99.90
26336;DHT22;14047;50.936;4.654;2023-04-03T08:18:09;5.40;99.90
26336;DHT22;14047;50.936;4.654;2023-04-03T08:20:35;5.40;99.90
26336;DHT22;14047;50.936;4.654;2023-04-03T08:23:01;5.50;99.90
26336;DHT22;14047;50.936;4.654;2023-04-03T08:25:27;5.40;99.90
26336;DHT22;14047;50.936;4.654;2023-04-03T08:27:55;5.50;99.90
26336;DHT22;14047;50.936;4.654;2023-04-03T08:30:21;5.70;99.90
26336;DHT22;14047;50.936;4.654;2023-04-03T08:32:47;6.00;99.90
26336;DHT22;14047;50.936;4.654;2023-04-03T08:35:13;5.80;99.90
26336;DHT22;14047;50.936;4.654;2023-04-03T08:37:40;5.80;99.90
26336;DHT22;14047;50.936;4.654;2023-04-03T08:40:08;5.60;99.90
26336;DHT22;14047;50.936;4.654;2023-04-03T08:48:05;6.20;99.90
26336;DHT22;14047;50.936;4.654;2023-04-03T08:50:41;6.60;99.90
26336;DHT22;14047;50.936;4.654;2023-04-03T08:53:18;6.60;99.90
26336;DHT22;14047;50.936;4.654;2023-04-03T08:55:51;6.40;99.90
26336;DHT22;14047;50.936;4.654;2023-04-03T09:01:02;6.50;99.90
26336;DHT22;14047;50.936;4.654;2023-04-03T09:03:31;6.50;99.90
26336;DHT22;14047;50.936;4.654;2023-04-03T09:08:31;7.00;99.90
26336;DHT22;14047;50.936;4.654;2023-04-03T09:11:16;7.20;99.90
26336;DHT22;14047;50.936;4.654;2023-04-03T09:14:07;7.30;99.90
26336;DHT22;14047;50.936;4.654;2023-04-03T09:19:18;7.00;99.90
26336;DHT22;14047;50.936;4.654;2023-04-03T09:21:47;7.00;99.90
26336;DHT22;14047;50.936;4.654;2023-04-03T09:24:15;7.10;99.90
26336;DHT22;14047;50.936;4.654;2023-04-03T09:26:58;7.30;99.90
26336;DHT22;14047;50.936;4.654;2023-04-03T09:29:28;7.20;99.90
26336;DHT22;14047;50.936;4.654;2023-04-03T09:32:00;7.20;99.90
26336;DHT22;14047;50.936;4.654;2023-04-03T09:34:30;7.40;99.90
26336;DHT22;14047;50.936;4.654;2023-04-03T09:36:58;7.40;99.90
26336;DHT22;14047;50.936;4.654;2023-04-03T09:39:27;7.50;99.90
26336;DHT22;14047;50.936;4.654;2023-04-03T09:42:03;7.70;99.90
26336;DHT22;14047;50.936;4.654;2023-04-03T09:44:37;7.80;99.90
26336;DHT22;14047;50.936;4.654;2023-04-03T09:49:50;8.00;99.90
26336;DHT22;14047;50.936;4.654;2023-04-03T09:52:24;8.10;99.90
26336;DHT22;14047;50.936;4.654;2023-04-03T09:54:50;8.30;99.90
26336;DHT22;14047;50.936;4.654;2023-04-03T09:57:16;8.50;99.90
26336;DHT22;14047;50.936;4.654;2023-04-03T09:59:56;8.70;99.90
26336;DHT22;14047;50.936;4.654;2023-04-03T10:02:34;8.80;99.90
26336;DHT22;14047;50.936;4.654;2023-04-03T10:05:01;8.80;99.90
26336;DHT22;14047;50.936;4.654;2023-04-03T10:07:36;8.80;99.90
26336;DHT22;14047;50.936;4.654;2023-04-03T10:10:29;8.60;99.90
26336;DHT22;14047;50.936;4.654;2023-04-03T10:13:11;8.60;99.90
26336;DHT22;14047;50.936;4.654;2023-04-03T10:21:55;8.70;99.90
26336;DHT22;14047;50.936;4.654;2023-04-03T10:32:26;8.90;99.90
26336;DHT22;14047;50.936;4.654;2023-04-03T10:35:03;9.10;99.90
26336;DHT22;14047;50.936;4.654;2023-04-03T10:40:23;8.90;99.90
26336;DHT22;14047;50.936;4.654;2023-04-03T10:43:17;9.10;99.90
26336;DHT22;14047;50.936;4.654;2023-04-03T10:45:57;9.20;99.90
26336;DHT22;14047;50.936;4.654;2023-04-03T10:48:52;8.70;99.90
26336;DHT22;14047;50.936;4.654;2023-04-03T10:51:23;8.60;99.90
26336;DHT22;14047;50.936;4.654;2023-04-03T10:53:58;8.80;99.90
26336;DHT22;14047;50.936;4.654;2023-04-03T10:59:18;9.00;99.90
26336;DHT22;14047;50.936;4.654;2023-04-03T11:02:04;8.80;99.90
26336;DHT22;14047;50.936;4.654;2023-04-03T11:04:35;8.90;99.90
26336;DHT22;14047;50.936;4.654;2023-04-03T11:07:08;9.20;99.90
26336;DHT22;14047;50.936;4.654;2023-04-03T11:09:41;9.40;99.90
26336;DHT22;14047;50.936;4.654;2023-04-03T11:12:39;9.50;99.90
26336;DHT22;14047;50.936;4.654;2023-04-03T11:15:15;9.70;99.90
26336;DHT22;14047;50.936;4.654;2023-04-03T11:17:47;10.00;99.90
26336;DHT22;14047;50.936;4.654;2023-04-03T11:20:31;9.70;99.90
26336;DHT22;14047;50.936;4.654;2023-04-03T11:23:48;9.60;99.90
26336;DHT22;14047;50.936;4.654;2023-04-03T11:26:04;9.70;99.90
26336;DHT22;14047;50.936;4.654;2023-04-03T11:28:32;9.30;99.90
26336;DHT22;14047;50.936;4.654;2023-04-03T11:31:10;9.30;99.90
26336;DHT22;14047;50.936;4.654;2023-04-03T11:36:44;9.40;99.90
26336;DHT22;14047;50.936;4.654;2023-04-03T11:39:31;9.20;99.90
26336;DHT22;14047;50.936;4.654;2023-04-03T11:42:22;9.00;99.90
26336;DHT22;14047;50.936;4.654;2023-04-03T11:44:51;8.90;99.90
26336;DHT22;14047;50.936;4.654;2023-04-03T11:47:47;9.10;99.90
26336;DHT22;14047;50.936;4.654;2023-04-03T11:50:46;9.70;99.90
26336;DHT22;14047;50.936;4.654;2023-04-03T11:58:17;10.60;99.90
26336;DHT22;14047;50.936;4.654;2023-04-03T12:14:03;10.50;99.90
26336;DHT22;14047;50.936;4.654;2023-04-03T12:19:27;10.90;99.90
26336;DHT22;14047;50.936;4.654;2023-04-03T12:24:29;10.80;99.90
26336;DHT22;14047;50.936;4.654;2023-04-03T12:27:16;11.00;99.90
26336;DHT22;14047;50.936;4.654;2023-04-03T12:29:55;11.20;99.90
26336;DHT22;14047;50.936;4.654;2023-04-03T12:32:46;11.10;99.90
26336;DHT22;14047;50.936;4.654;2023-04-03T12:38:50;10.80;99.90
26336;DHT22;14047;50.936;4.654;2023-04-03T12:44:31;10.20;99.90
26336;DHT22;14047;50.936;4.654;2023-04-03T12:47:16;10.60;99.90
26336;DHT22;14047;50.936;4.654;2023-04-03T12:49:45;10.80;99.90
26336;DHT22;14047;50.936;4.654;2023-04-03T12:53:01;10.90;99.90
26336;DHT22;14047;50.936;4.654;2023-04-03T12:55:14;11.10;99.90
26336;DHT22;14047;50.936;4.654;2023-04-03T12:57:41;10.70;99.90
26336;DHT22;14047;50.936;4.654;2023-04-03T13:00:34;10.10;99.90
26336;DHT22;14047;50.936;4.654;2023-04-03T13:03:05;10.20;99.90
26336;DHT22;14047;50.936;4.654;2023-04-03T13:05:32;10.30;99.90
26336;DHT22;14047;50.936;4.654;2023-04-03T13:08:05;10.70;99.90
26336;DHT22;14047;50.936;4.654;2023-04-03T13:11:16;11.10;99.90
26336;DHT22;14047;50.936;4.654;2023-04-03T13:13:36;11.40;99.90
26336;DHT22;14047;50.936;4.654;2023-04-03T13:16:11;11.50;99.90
26336;DHT22;14047;50.936;4.654;2023-04-03T13:18:38;11.50;99.90
26336;DHT22;14047;50.936;4.654;2023-04-03T13:21:30;11.40;99.90
26336;DHT22;14047;50.936;4.654;2023-04-03T13:23:59;11.10;99.90
26336;DHT22;14047;50.936;4.654;2023-04-03T13:26:29;11.30;99.90
26336;DHT22;14047;50.936;4.654;2023-04-03T13:29:21;11.60;99.90
26336;DHT22;14047;50.936;4.654;2023-04-03T13:31:53;11.80;99.90
26336;DHT22;14047;50.936;4.654;2023-04-03T13:34:20;12.00;99.90
26336;DHT22;14047;50.936;4.654;2023-04-03T13:41:46;11.60;99.90
26336;DHT22;14047;50.936;4.654;2023-04-03T13:49:36;11.70;99.90
26336;DHT22;14047;50.936;4.654;2023-04-03T13:52:30;12.10;99.90
26336;DHT22;14047;50.936;4.654;2023-04-03T13:55:00;11.80;99.90
26336;DHT22;14047;50.936;4.654;2023-04-03T13:57:27;11.70;99.90
26336;DHT22;14047;50.936;4.654;2023-04-03T13:59:54;10.80;99.90
26336;DHT22;14047;50.936;4.654;2023-04-03T14:02:30;10.50;99.90
26336;DHT22;14047;50.936;4.654;2023-04-03T14:04:59;11.00;99.90
26336;DHT22;14047;50.936;4.654;2023-04-03T14:07:26;11.40;99.90
26336;DHT22;14047;50.936;4.654;2023-04-03T14:09:53;11.60;99.90
26336;DHT22;14047;50.936;4.654;2023-04-03T14:12:35;11.80;99.90
26336;DHT22;14047;50.936;4.654;2023-04-03T14:15:20;12.00;99.90
26336;DHT22;14047;50.936;4.654;2023-04-03T14:17:49;12.30;99.90
26336;DHT22;14047;50.936;4.654;2023-04-03T14:20:19;12.30;99.90
26336;DHT22;14047;50.936;4.654;2023-04-03T14:22:46;12.30;99.90
26336;DHT22;14047;50.936;4.654;2023-04-03T14:25:12;12.30;99.90
26336;DHT22;14047;50.936;4.654;2023-04-03T14:27:43;11.50;99.90
26336;DHT22;14047;50.936;4.654;2023-04-03T14:30:23;11.80;99.90
26336;DHT22;14047;50.936;4.654;2023-04-03T14:32:49;12.10;99.90
26336;DHT22;14047;50.936;4.654;2023-04-03T14:35:16;11.70;99.90
26336;DHT22;14047;50.936;4.654;2023-04-03T14:37:42;12.10;99.90
26336;DHT22;14047;50.936;4.654;2023-04-03T14:40:14;12.00;99.90
26336;DHT22;14047;50.936;4.654;2023-04-03T14:42:40;12.10;99.90
26336;DHT22;14047;50.936;4.654;2023-04-03T14:45:09;11.80;99.90
26336;DHT22;14047;50.936;4.654;2023-04-03T14:47:44;12.10;99.90
26336;DHT22;14047;50.936;4.654;2023-04-03T14:50:16;12.40;99.90
26336;DHT22;14047;50.936;4.654;2023-04-03T14:52:43;12.70;99.90
26336;DHT22;14047;50.936;4.654;2023-04-03T14:55:11;12.70;99.90
26336;DHT22;14047;50.936;4.654;2023-04-03T14:57:38;12.40;99.90
26336;DHT22;14047;50.936;4.654;2023-04-03T15:00:07;12.40;99.90
26336;DHT22;14047;50.936;4.654;2023-04-03T15:02:36;11.90;99.90
26336;DHT22;14047;50.936;4.654;2023-04-03T15:05:06;11.60;99.90
26336;DHT22;14047;50.936;4.654;2023-04-03T15:07:36;12.40;99.90
26336;DHT22;14047;50.936;4.654;2023-04-03T15:13:05;13.60;99.90
26336;DHT22;14047;50.936;4.654;2023-04-03T15:15:34;12.80;99.90
26336;DHT22;14047;50.936;4.654;2023-04-03T15:18:01;14.20;99.90
26336;DHT22;14047;50.936;4.654;2023-04-03T15:20:28;15.40;99.90
26336;DHT22;14047;50.936;4.654;2023-04-03T15:22:56;16.30;99.90
26336;DHT22;14047;50.936;4.654;2023-04-03T15:25:23;16.90;97.80
26336;DHT22;14047;50.936;4.654;2023-04-03T15:27:49;17.30;95.10
26336;DHT22;14047;50.936;4.654;2023-04-03T15:30:18;17.80;94.20
26336;DHT22;14047;50.936;4.654;2023-04-03T15:32:44;18.00;92.70
26336;DHT22;14047;50.936;4.654;2023-04-03T15:35:10;18.00;91.50
26336;DHT22;14047;50.936;4.654;2023-04-03T15:37:36;18.00;91.90
26336;DHT22;14047;50.936;4.654;2023-04-03T15:40:05;18.00;91.40
26336;DHT22;14047;50.936;4.654;2023-04-03T15:42:31;18.20;90.30
26336;DHT22;14047;50.936;4.654;2023-04-03T15:44:57;18.40;91.30
26336;DHT22;14047;50.936;4.654;2023-04-03T15:47:24;16.90;90.70
26336;DHT22;14047;50.936;4.654;2023-04-03T15:49:51;15.90;91.30
26336;DHT22;14047;50.936;4.654;2023-04-03T15:52:17;16.20;92.20
26336;DHT22;14047;50.936;4.654;2023-04-03T15:54:43;16.90;92.00
26336;DHT22;14047;50.936;4.654;2023-04-03T15:57:09;17.10;91.60
26336;DHT22;14047;50.936;4.654;2023-04-03T15:59:34;16.90;91.20
26336;DHT22;14047;50.936;4.654;2023-04-03T16:02:01;16.00;92.30
26336;DHT22;14047;50.936;4.654;2023-04-03T16:04:29;15.10;92.90
26336;DHT22;14047;50.936;4.654;2023-04-03T16:06:55;14.40;94.80
26336;DHT22;14047;50.936;4.654;2023-04-03T16:09:21;13.30;95.20
26336;DHT22;14047;50.936;4.654;2023-04-03T16:11:47;12.30;98.50
26336;DHT22;14047;50.936;4.654;2023-04-03T16:14:13;12.20;98.70
26336;DHT22;14047;50.936;4.654;2023-04-03T16:16:40;12.20;98.50
26336;DHT22;14047;50.936;4.654;2023-04-03T16:19:06;12.00;98.40
26336;DHT22;14047;50.936;4.654;2023-04-03T16:21:32;11.90;97.60
26336;DHT22;14047;50.936;4.654;2023-04-03T16:23:59;11.40;99.40
26336;DHT22;14047;50.936;4.654;2023-04-03T16:26:26;11.60;99.90
26336;DHT22;14047;50.936;4.654;2023-04-03T16:28:53;12.00;99.90
26336;DHT22;14047;50.936;4.654;2023-04-03T16:31:20;13.00;99.90
26336;DHT22;14047;50.936;4.654;2023-04-03T16:33:48;12.80;98.10
26336;DHT22;14047;50.936;4.654;2023-04-03T16:36:14;11.80;99.70
26336;DHT22;14047;50.936;4.654;2023-04-03T16:38:40;11.30;99.90
26336;DHT22;14047;50.936;4.654;2023-04-03T16:41:06;11.90;99.90
26336;DHT22;14047;50.936;4.654;2023-04-03T16:43:33;12.00;99.90
26336;DHT22;14047;50.936;4.654;2023-04-03T16:46:00;12.20;99.90
26336;DHT22;14047;50.936;4.654;2023-04-03T16:48:29;12.40;99.90
26336;DHT22;14047;50.936;4.654;2023-04-03T16:50:55;11.70;99.90
26336;DHT22;14047;50.936;4.654;2023-04-03T16:53:22;11.90;99.90
26336;DHT22;14047;50.936;4.654;2023-04-03T16:55:49;11.80;99.90
26336;DHT22;14047;50.936;4.654;2023-04-03T16:58:15;12.10;99.90
26336;DHT22;14047;50.936;4.654;2023-04-03T17:00:42;12.40;99.90
26336;DHT22;14047;50.936;4.654;2023-04-03T17:03:08;12.50;99.90
26336;DHT22;14047;50.936;4.654;2023-04-03T17:05:34;12.60;99.90
26336;DHT22;14047;50.936;4.654;2023-04-03T17:08:00;13.10;99.90
26336;DHT22;14047;50.936;4.654;2023-04-03T17:10:30;13.20;99.30
26336;DHT22;14047;50.936;4.654;2023-04-03T17:12:56;13.50;99.90
26336;DHT22;14047;50.936;4.654;2023-04-03T17:15:23;12.30;99.90
26336;DHT22;14047;50.936;4.654;2023-04-03T17:17:51;12.00;99.90
26336;DHT22;14047;50.936;4.654;2023-04-03T17:20:17;11.50;99.90
26336;DHT22;14047;50.936;4.654;2023-04-03T17:22:43;11.20;99.90
26336;DHT22;14047;50.936;4.654;2023-04-03T17:25:10;11.10;99.90
26336;DHT22;14047;50.936;4.654;2023-04-03T17:27:36;11.10;99.90
26336;DHT22;14047;50.936;4.654;2023-04-03T17:30:06;10.70;99.90
26336;DHT22;14047;50.936;4.654;2023-04-03T17:32:32;11.00;99.90